createdAt,value
2018-09-03T00:00:26.102Z,28.53
2018-09-03T00:03:30.246Z,26.10
2018-09-03T00:06:34.580Z,31.23
2018-09-03T00:09:41.278Z,29.87
2018-09-03T00:12:45.455Z,26.97
2018-09-03T00:15:49.902Z,30.63
2018-09-03T00:18:54.536Z,26.83
2018-09-03T00:21:59.052Z,33.13
2018-09-03T00:25:03.225Z,30.90
2018-09-03T00:28:07.396Z,26.83
2018-09-03T00:31:16.659Z,29.07
2018-09-03T00:34:26.086Z,26.30
2018-09-03T00:37:35.595Z,27.67
2018-09-03T00:40:44.929Z,28.67
2018-09-03T00:43:54.439Z,28.70
2018-09-03T00:47:01.700Z,32.80
2018-09-03T00:50:06.282Z,35.30
2018-09-03T00:53:10.450Z,29.60
2018-09-03T00:56:14.861Z,32.23
2018-09-03T00:59:19.162Z,30.73
2018-09-03T01:02:23.335Z,31.93
2018-09-03T01:05:27.450Z,33.13
2018-09-03T01:08:31.584Z,36.43
2018-09-03T01:11:35.803Z,35.50
2018-09-03T01:14:39.982Z,31.17
2018-09-03T01:17:44.124Z,31.37
2018-09-03T01:20:48.888Z,28.83
2018-09-03T01:23:53.416Z,35.23
2018-09-03T01:26:57.589Z,40.20
2018-09-03T01:30:01.720Z,44.43
2018-09-03T01:33:05.877Z,29.37
2018-09-03T01:36:10.061Z,36.73
2018-09-03T01:39:14.207Z,41.50
2018-09-03T01:42:18.366Z,49.77
2018-09-03T01:45:22.509Z,38.00
2018-09-03T01:48:26.750Z,34.47
2018-09-03T01:51:30.864Z,39.50
2018-09-03T01:54:35.320Z,41.70
2018-09-03T01:57:39.509Z,37.80
2018-09-03T02:00:43.700Z,31.53
2018-09-03T02:03:47.851Z,41.33
2018-09-03T02:06:52.000Z,41.13
2018-09-03T02:09:56.292Z,39.80
2018-09-03T02:13:00.479Z,39.03
2018-09-03T02:16:05.052Z,37.00
2018-09-03T02:19:09.766Z,33.33
2018-09-03T02:22:13.888Z,37.37
2018-09-03T02:25:18.003Z,40.77
2018-09-03T02:28:22.142Z,31.63
2018-09-03T02:31:26.260Z,36.47
2018-09-03T02:34:30.388Z,39.53
2018-09-03T02:37:34.667Z,34.67
2018-09-03T02:40:38.915Z,37.87
2018-09-03T02:43:43.149Z,37.30
2018-09-03T02:46:47.243Z,36.40
2018-09-03T02:49:51.370Z,29.27
2018-09-03T02:52:55.578Z,37.47
2018-09-03T02:55:59.722Z,35.57
2018-09-03T02:59:03.936Z,36.53
2018-09-03T03:02:08.106Z,37.37
2018-09-03T03:05:12.347Z,34.70
2018-09-03T03:08:16.500Z,33.70
2018-09-03T03:11:20.643Z,38.27
2018-09-03T03:14:25.398Z,37.17
2018-09-03T03:17:29.641Z,42.43
2018-09-03T03:20:33.792Z,39.30
2018-09-03T03:23:37.962Z,35.67
2018-09-03T03:26:42.164Z,35.27
2018-09-03T03:29:46.373Z,44.80
2018-09-03T03:32:51.193Z,39.67
2018-09-03T03:35:55.357Z,41.47
2018-09-03T03:38:59.793Z,37.77
2018-09-03T03:42:03.952Z,35.63
2018-09-03T03:45:08.247Z,36.37
2018-09-03T03:48:12.367Z,34.83
2018-09-03T03:51:16.997Z,35.73
2018-09-03T03:54:21.150Z,38.53
2018-09-03T03:57:25.585Z,41.97
2018-09-03T04:00:29.714Z,37.00
2018-09-03T04:03:33.801Z,39.40
2018-09-03T04:06:37.973Z,40.90
2018-09-03T04:09:42.073Z,42.50
2018-09-03T04:12:51.571Z,44.20
2018-09-03T04:15:55.784Z,42.33
2018-09-03T04:18:59.931Z,36.73
2018-09-03T04:22:04.023Z,44.73
2018-09-03T04:25:08.218Z,44.50
2018-09-03T04:28:12.387Z,44.30
2018-09-03T04:31:16.534Z,41.73
2018-09-03T04:34:20.718Z,40.23
2018-09-03T04:37:24.941Z,38.07
2018-09-03T04:40:29.305Z,44.37
2018-09-03T04:43:33.445Z,44.67
2018-09-03T04:46:37.646Z,40.63
2018-09-03T04:49:41.970Z,41.57
2018-09-03T04:52:46.099Z,39.43
2018-09-03T04:55:50.283Z,40.43
2018-09-03T04:58:54.419Z,34.13
2018-09-03T05:01:58.588Z,35.40
2018-09-03T05:05:02.723Z,34.13
2018-09-03T05:08:06.977Z,37.33
2018-09-03T05:11:11.095Z,38.37
2018-09-03T05:14:15.469Z,36.10
2018-09-03T05:17:19.607Z,39.77
2018-09-03T05:20:23.765Z,37.67
2018-09-03T05:23:27.966Z,33.67
2018-09-03T05:26:32.259Z,33.77
2018-09-03T05:29:36.438Z,36.87
2018-09-03T05:32:40.712Z,44.20
2018-09-03T05:35:44.977Z,34.60
2018-09-03T05:38:49.108Z,31.90
2018-09-03T05:41:53.663Z,37.23
2018-09-03T05:44:57.807Z,33.83
2018-09-03T05:48:02.159Z,36.50
2018-09-03T05:51:06.745Z,35.47
2018-09-03T05:54:10.911Z,40.40
2018-09-03T05:57:15.646Z,38.23
2018-09-03T06:00:19.779Z,37.10
2018-09-03T06:03:24.359Z,37.50
2018-09-03T06:06:28.458Z,35.30
2018-09-03T06:09:32.652Z,33.47
2018-09-03T06:12:37.380Z,38.80
2018-09-03T06:15:41.621Z,34.90
2018-09-03T06:18:45.806Z,38.40
2018-09-03T06:21:49.931Z,38.30
2018-09-03T06:24:54.223Z,41.00
2018-09-03T06:27:58.403Z,35.93
2018-09-03T06:31:02.722Z,47.23
2018-09-03T06:34:06.991Z,42.03
2018-09-03T06:37:11.148Z,33.60
2018-09-03T06:40:15.301Z,38.80
2018-09-03T06:43:19.459Z,36.63
2018-09-03T06:46:24.606Z,34.30
2018-09-03T06:49:28.691Z,39.40
2018-09-03T06:52:32.839Z,35.00
2018-09-03T06:55:37.001Z,40.00
2018-09-03T06:58:41.379Z,36.17
2018-09-03T07:01:45.582Z,38.27
2018-09-03T07:04:49.696Z,39.93
2018-09-03T07:07:53.823Z,33.50
2018-09-03T07:10:57.966Z,34.77
2018-09-03T07:14:02.237Z,36.53
2018-09-03T07:17:06.594Z,32.50
2018-09-03T07:20:10.733Z,38.80
2018-09-03T07:23:14.897Z,34.47
2018-09-03T07:26:19.086Z,33.77
2018-09-03T07:29:23.337Z,38.90
2018-09-03T07:32:27.676Z,35.43
2018-09-03T07:35:31.811Z,34.47
2018-09-03T07:38:36.071Z,37.33
2018-09-03T07:41:40.294Z,34.93
2018-09-03T07:44:44.478Z,36.03
2018-09-03T07:47:48.648Z,36.83
2018-09-03T07:50:52.808Z,38.67
2018-09-03T07:53:56.897Z,38.77
2018-09-03T07:57:01.069Z,39.60
2018-09-03T08:00:05.253Z,41.97
2018-09-03T08:03:09.404Z,45.20
2018-09-03T08:06:13.524Z,55.70
2018-09-03T08:09:17.663Z,46.07
2018-09-03T08:12:21.827Z,52.77
2018-09-03T08:15:25.978Z,48.60
2018-09-03T08:18:30.102Z,55.47
2018-09-03T08:21:34.243Z,53.50
2018-09-03T08:24:39.164Z,54.57
2018-09-03T08:27:43.327Z,47.03
2018-09-03T08:30:47.478Z,43.63
2018-09-03T08:33:51.606Z,46.23
2018-09-03T08:36:55.750Z,45.13
2018-09-03T08:39:59.878Z,43.70
2018-09-03T08:43:03.998Z,44.37
2018-09-03T08:46:08.092Z,42.27
2018-09-03T08:49:12.306Z,40.03
2018-09-03T08:52:16.429Z,39.13
2018-09-03T08:55:20.597Z,36.97
2018-09-03T08:58:24.767Z,31.93
2018-09-03T09:01:28.974Z,35.70
2018-09-03T09:04:33.146Z,34.50
2018-09-03T09:07:37.369Z,33.03
2018-09-03T09:10:41.777Z,29.27
2018-09-03T09:13:46.571Z,29.07
2018-09-03T09:16:50.826Z,29.57
2018-09-03T09:19:55.091Z,27.57
2018-09-03T09:22:59.525Z,30.83
2018-09-03T09:26:04.331Z,35.63
2018-09-03T09:29:08.600Z,30.07
2018-09-03T09:32:12.861Z,30.57
2018-09-03T09:35:17.187Z,28.57
2018-09-03T09:38:21.338Z,24.40
2018-09-03T09:41:25.882Z,25.70
2018-09-03T09:44:30.123Z,29.10
2018-09-03T09:47:34.339Z,29.93
2018-09-03T09:50:38.573Z,28.37
2018-09-03T09:53:42.791Z,25.10
2018-09-03T09:56:47.342Z,26.47
2018-09-03T09:59:52.541Z,26.37
2018-09-03T10:02:56.796Z,20.73
2018-09-03T10:06:00.941Z,25.50
2018-09-03T10:09:07.621Z,23.37
2018-09-03T10:12:11.886Z,22.40
2018-09-03T10:15:16.327Z,24.67
2018-09-03T10:18:20.595Z,22.17
2018-09-03T10:21:24.845Z,28.03
2018-09-03T10:24:29.363Z,24.43
2018-09-03T10:27:33.942Z,25.87
2018-09-03T10:30:38.121Z,23.33
2018-09-03T10:33:42.335Z,21.90
2018-09-03T10:36:46.562Z,22.23
2018-09-03T10:39:51.124Z,24.93
2018-09-03T10:42:56.302Z,24.93
2018-09-03T10:46:00.721Z,24.03
2018-09-03T10:49:04.896Z,24.57
2018-09-03T10:52:09.901Z,25.97
2018-09-03T10:55:14.149Z,26.17
2018-09-03T10:58:18.471Z,27.33
2018-09-03T11:01:22.713Z,26.50
2018-09-03T11:04:26.878Z,27.73
2018-09-03T11:07:31.122Z,30.47
2018-09-03T11:10:35.904Z,27.00
2018-09-03T11:13:40.388Z,27.60
2018-09-03T11:16:44.584Z,31.20
2018-09-03T11:19:56.042Z,27.13
2018-09-03T11:23:00.253Z,29.13
2018-09-03T11:26:04.484Z,29.63
2018-09-03T11:29:08.716Z,30.33
2018-09-03T11:32:12.892Z,31.53
2018-09-03T11:35:17.255Z,33.20
2018-09-03T11:38:21.432Z,32.33
2018-09-03T11:41:25.551Z,33.67
2018-09-03T11:44:29.708Z,31.70
2018-09-03T11:47:33.859Z,37.70
2018-09-03T11:50:38.004Z,36.53
2018-09-03T11:53:42.261Z,39.97
2018-09-03T11:56:46.385Z,39.27
2018-09-03T11:59:50.555Z,36.87
2018-09-03T12:02:54.763Z,37.10
2018-09-03T12:05:58.969Z,35.73
2018-09-03T12:09:03.655Z,35.37
2018-09-03T12:12:07.816Z,41.90
2018-09-03T12:16:19.808Z,35.37
2018-09-03T12:19:23.975Z,35.90
2018-09-03T12:22:28.127Z,36.57
2018-09-03T12:25:32.307Z,30.10
2018-09-03T12:28:36.450Z,30.23
2018-09-03T12:31:40.607Z,29.50
2018-09-03T12:34:44.754Z,25.50
2018-09-03T12:37:50.025Z,21.33
2018-09-03T12:40:54.323Z,22.37
2018-09-03T12:43:58.817Z,22.50
2018-09-03T12:47:03.000Z,24.30
2018-09-03T12:50:07.260Z,23.23
2018-09-03T12:53:11.361Z,24.50
2018-09-03T12:56:15.548Z,31.20
2018-09-03T12:59:19.733Z,34.93
2018-09-03T13:02:23.851Z,31.47
2018-09-03T13:05:27.999Z,27.73
2018-09-03T13:08:32.227Z,27.03
2018-09-03T13:11:36.364Z,31.57
2018-09-03T13:14:40.585Z,29.77
2018-09-03T13:17:44.757Z,32.53
2018-09-03T13:20:48.891Z,29.43
2018-09-03T13:23:53.056Z,29.20
2018-09-03T13:26:57.287Z,31.40
2018-09-03T13:30:01.712Z,31.70
2018-09-03T13:33:06.051Z,33.73
2018-09-03T13:36:10.221Z,33.57
2018-09-03T13:39:14.295Z,31.60
2018-09-03T13:42:18.528Z,34.83
2018-09-03T13:45:22.665Z,34.57
2018-09-03T13:48:26.785Z,35.47
2018-09-03T13:51:31.651Z,38.87
2018-09-03T13:54:35.804Z,37.17
2018-09-03T13:57:40.191Z,39.10
2018-09-03T14:00:44.379Z,39.83
2018-09-03T14:03:48.501Z,40.23
2018-09-03T14:06:52.656Z,38.43
2018-09-03T14:09:56.872Z,41.80
2018-09-03T14:13:01.029Z,36.67
2018-09-03T14:16:05.170Z,38.87
2018-09-03T14:19:09.363Z,40.97
2018-09-03T14:22:13.514Z,33.37
2018-09-03T14:25:17.687Z,34.77
2018-09-03T14:28:21.908Z,32.67
2018-09-03T14:31:26.016Z,34.33
2018-09-03T14:34:30.194Z,36.67
2018-09-03T14:37:34.316Z,35.63
2018-09-03T14:40:39.687Z,33.20
2018-09-03T14:43:44.176Z,31.77
2018-09-03T14:46:48.349Z,33.13
2018-09-03T14:49:52.513Z,33.63
2018-09-03T14:52:57.783Z,33.97
2018-09-03T14:56:01.906Z,33.37
2018-09-03T14:59:06.275Z,33.07
2018-09-03T15:02:10.669Z,28.97
2018-09-03T15:05:15.296Z,27.47
2018-09-03T15:08:19.523Z,39.07
2018-09-03T15:11:23.709Z,28.13
2018-09-03T15:14:27.822Z,32.00
2018-09-03T15:17:32.008Z,26.37
2018-09-03T15:20:36.156Z,33.20
2018-09-03T15:23:40.503Z,30.93
2018-09-03T15:26:44.741Z,29.37
2018-09-03T15:29:48.773Z,33.73
2018-09-03T15:32:52.935Z,31.27
2018-09-03T15:35:57.080Z,32.80
2018-09-03T15:39:01.356Z,33.47
2018-09-03T15:42:05.659Z,30.77
2018-09-03T15:45:09.879Z,30.67
2018-09-03T15:48:14.103Z,27.03
2018-09-03T15:51:18.741Z,33.53
2018-09-03T15:54:22.870Z,33.23
2018-09-03T15:57:27.057Z,30.27
2018-09-03T16:00:31.243Z,31.43
2018-09-03T16:03:35.453Z,30.67
2018-09-03T16:06:39.847Z,30.30
2018-09-03T16:09:43.993Z,35.13
2018-09-03T16:12:48.139Z,30.47
2018-09-03T16:15:53.776Z,32.93
2018-09-03T16:18:58.184Z,30.00
2018-09-03T16:22:02.460Z,32.23
2018-09-03T16:25:06.841Z,34.90
2018-09-03T16:28:11.032Z,31.00
2018-09-03T16:31:15.166Z,31.53
2018-09-03T16:34:19.396Z,29.37
2018-09-03T16:37:23.549Z,34.57
2018-09-03T16:40:28.309Z,33.97
2018-09-03T16:43:32.486Z,41.87
2018-09-03T16:46:36.672Z,43.43
2018-09-03T16:49:40.862Z,36.40
2018-09-03T16:52:45.078Z,32.70
2018-09-03T16:55:49.290Z,42.77
2018-09-03T16:58:53.747Z,37.60
2018-09-03T17:01:57.943Z,33.50
2018-09-03T17:05:02.387Z,35.70
2018-09-03T17:08:06.681Z,33.47
2018-09-03T17:11:10.873Z,33.83
2018-09-03T17:14:15.021Z,41.33
2018-09-03T17:17:19.272Z,31.90
2018-09-03T17:20:23.523Z,43.17
2018-09-03T17:23:27.644Z,38.00
2018-09-03T17:26:31.914Z,35.90
2018-09-03T17:29:36.435Z,37.83
2018-09-03T17:32:40.812Z,39.00
2018-09-03T17:35:44.984Z,42.80
2018-09-03T17:38:49.277Z,43.80
2018-09-03T17:41:53.543Z,39.57
2018-09-03T17:44:57.823Z,44.23
2018-09-03T17:48:02.042Z,75.47
2018-09-03T17:51:06.375Z,52.57
2018-09-03T17:54:10.604Z,44.83
2018-09-03T17:57:14.828Z,44.00
2018-09-03T18:00:19.203Z,47.67
2018-09-03T18:03:23.570Z,42.37
2018-09-03T18:06:27.795Z,43.03
2018-09-03T18:09:32.160Z,40.53
2018-09-03T18:12:36.479Z,38.50
2018-09-03T18:15:40.969Z,41.90
2018-09-03T18:18:45.142Z,40.87
2018-09-03T18:21:49.398Z,44.70
2018-09-03T18:24:53.672Z,41.97
2018-09-03T18:27:57.911Z,41.33
2018-09-03T18:31:02.122Z,44.53
2018-09-03T18:34:06.648Z,40.30
2018-09-03T18:37:10.883Z,41.83
2018-09-03T18:40:15.049Z,39.23
2018-09-03T18:43:20.987Z,49.30
2018-09-03T18:46:25.193Z,38.90
2018-09-03T18:49:30.277Z,37.73
2018-09-03T18:52:34.535Z,36.37
2018-09-03T18:55:38.764Z,30.70
2018-09-03T18:58:42.916Z,33.50
2018-09-03T19:01:47.186Z,37.77
2018-09-03T19:04:52.719Z,37.13
2018-09-03T19:07:57.063Z,37.30
2018-09-03T19:11:01.289Z,35.67
2018-09-03T19:14:05.584Z,37.23
2018-09-03T19:17:10.772Z,38.73
2018-09-03T19:20:14.918Z,38.07
2018-09-03T19:23:19.147Z,42.13
2018-09-03T19:26:23.350Z,36.27
2018-09-03T19:29:27.742Z,35.53
2018-09-03T19:32:32.228Z,29.93
2018-09-03T19:35:36.338Z,40.87
2018-09-03T19:38:40.906Z,35.03
2018-09-03T19:41:45.356Z,36.07
2018-09-03T19:44:50.473Z,39.20
2018-09-03T19:47:54.756Z,36.17
2018-09-03T19:51:00.103Z,41.67
2018-09-03T19:54:04.304Z,37.27
2018-09-03T19:57:08.693Z,36.83
2018-09-03T20:00:12.969Z,30.50
2018-09-03T20:03:17.211Z,33.00
2018-09-03T20:06:21.705Z,34.20
2018-09-03T20:09:26.557Z,38.77
2018-09-03T20:12:30.720Z,37.30
2018-09-03T20:15:34.865Z,40.73
2018-09-03T20:18:39.043Z,36.87
2018-09-03T20:21:43.321Z,37.27
2018-09-03T20:24:48.550Z,38.50
2018-09-03T20:27:59.398Z,42.63
2018-09-03T20:31:03.671Z,37.23
2018-09-03T20:34:07.783Z,40.10
2018-09-03T20:37:11.972Z,37.10
2018-09-03T20:40:16.083Z,45.57
2018-09-03T20:43:20.247Z,36.43
2018-09-03T20:46:24.503Z,38.57
2018-09-03T20:49:28.618Z,44.80
2018-09-03T20:52:32.800Z,38.13
2018-09-03T20:55:37.284Z,38.43
2018-09-03T20:58:41.579Z,39.43
2018-09-03T21:01:45.764Z,46.00
2018-09-03T21:04:49.918Z,37.27
2018-09-03T21:07:54.074Z,41.67
2018-09-03T21:10:58.312Z,38.17
2018-09-03T21:14:02.461Z,44.47
2018-09-03T21:17:06.962Z,33.53
2018-09-03T21:20:11.188Z,44.17
2018-09-03T21:23:15.435Z,41.07
2018-09-03T21:26:19.599Z,45.20
2018-09-03T21:29:23.783Z,54.43
2018-09-03T21:32:28.066Z,49.53
2018-09-03T21:35:32.206Z,52.77
2018-09-03T21:38:36.394Z,53.23
2018-09-03T21:41:40.730Z,47.60
2018-09-03T21:44:45.397Z,54.07
2018-09-03T21:47:49.571Z,41.10
2018-09-03T21:50:53.788Z,46.87
2018-09-03T21:53:57.945Z,43.53
2018-09-03T21:57:02.055Z,45.23
2018-09-03T22:00:06.334Z,47.43
2018-09-03T22:03:10.550Z,52.83
2018-09-03T22:06:14.692Z,51.90
2018-09-03T22:09:18.953Z,49.97
2018-09-03T22:12:23.111Z,66.80
2018-09-03T22:15:27.266Z,65.03
2018-09-03T22:18:31.793Z,57.27
2018-09-03T22:21:35.956Z,51.93
2018-09-03T22:24:40.434Z,58.87
2018-09-03T22:27:44.584Z,53.00
2018-09-03T22:30:48.757Z,56.73
2018-09-03T22:33:53.890Z,60.03
2018-09-03T22:36:58.065Z,48.80
2018-09-03T22:40:02.206Z,68.90
2018-09-03T22:43:06.398Z,71.73
2018-09-03T22:46:10.523Z,81.83
2018-09-03T22:49:14.657Z,62.23
2018-09-03T22:52:18.789Z,63.20
2018-09-03T22:55:22.922Z,62.97
2018-09-03T22:58:27.624Z,53.00
2018-09-03T23:01:31.910Z,70.70
2018-09-03T23:04:36.084Z,59.63
2018-09-03T23:07:40.547Z,62.93
2018-09-03T23:10:44.831Z,99.20
2018-09-03T23:13:49.001Z,84.77
2018-09-03T23:16:53.135Z,77.07
2018-09-03T23:19:57.280Z,111.37
2018-09-03T23:23:01.977Z,66.80
2018-09-03T23:26:06.130Z,108.60
2018-09-03T23:29:10.295Z,108.47
2018-09-03T23:32:14.499Z,89.07
2018-09-03T23:35:18.840Z,79.93
2018-09-03T23:38:23.007Z,81.30
2018-09-03T23:41:27.087Z,79.37
2018-09-03T23:44:31.222Z,72.00
2018-09-03T23:47:35.814Z,85.93
2018-09-03T23:50:40.048Z,107.97
2018-09-03T23:53:44.205Z,59.87
2018-09-03T23:56:48.336Z,56.10
2018-09-03T23:59:52.517Z,105.23
